CST,Max TemperatureF,Mean TemperatureF,Min TemperatureF,Max Dew PointF,MeanDew PointF,Min DewpointF,Max Humidity, Mean Humidity, Min Humidity, Max Sea Level PressureIn, Mean Sea Level PressureIn, Min Sea Level PressureIn, Max VisibilityMiles, Mean VisibilityMiles, Min VisibilityMiles, Max Wind SpeedMPH, Mean Wind SpeedMPH, Max Gust SpeedMPH,PrecipitationIn, CloudCover, Events, WindDirDegrees
2011-11-1,59,46,33,39,32,27,81,57,39,30.06,29.90,29.78,10,10,9,22,10,29,0.00,0,,346
2011-11-2,46,36,26,34,27,19,87,63,39,30.33,30.26,30.11,10,10,7,24,16,34,0.12,2,,334
2011-11-3,51,36,21,27,19,14,80,55,26,30.37,30.29,30.20,10,10,10,12,7,,0.00,0,,192
2011-11-4,53,40,28,32,25,19,75,57,33,30.20,30.08,29.92,10,10,10,26,12,34,0.00,0,,144
2011-11-5,59,49,39,37,33,28,81,60,36,29.89,29.67,29.50,10,10,10,31,16,40,0.00,0,,143
2011-11-6,53,45,37,39,29,19,75,53,26,29.94,29.70,29.44,10,10,10,28,19,36,0.00,1,,240
2011-11-7,50,37,24,25,20,16,74,47,30,30.24,30.17,30.06,10,10,10,10,5,,0.00,0,,347
2011-11-8,48,40,33,25,22,19,60,46,34,30.18,30.15,30.11,10,10,10,10,7,,0.00,3,,20
2011-11-9,46,36,26,25,20,12,75,58,31,30.26,30.22,30.16,10,10,10,33,14,38,0.00,0,,301
2011-11-10,44,34,24,19,15,12,69,49,27,30.27,30.18,29.97,10,10,10,16,12,17,0.00,0,,271
2011-11-11,64,44,24,27,22,18,80,47,19,29.86,29.72,29.65,10,10,10,20,8,23,0.00,0,,218
2011-11-12,60,46,33,34,25,18,60,42,25,29.60,29.40,29.28,10,10,10,15,9,21,0.00,0,,171
2011-11-13,51,46,42,43,33,27,82,59,43,29.48,29.36,29.19,10,10,9,28,11,36,0.03,2,,252
2011-11-14,55,42,28,28,23,19,74,46,26,29.62,29.55,29.45,10,10,10,18,7,24,0.00,1,,229
2011-11-15,46,37,28,28,18,9,70,48,29,30.06,29.82,29.53,10,10,10,28,11,33,0.00,1,,281
2011-11-16,42,30,19,16,9,5,68,46,24,30.27,30.19,30.08,10,10,10,29,12,37,0.00,0,,268
2011-11-17,46,30,14,23,13,3,74,51,29,30.23,30.06,29.75,10,10,10,21,6,21,0.00,0,,146
2011-11-18,51,40,30,27,22,18,64,50,35,29.75,29.64,29.59,10,10,10,24,15,37,0.00,0,,258
2011-11-19,32,28,21,23,19,16,86,74,64,30.10,29.80,29.68,10,9,2,21,13,29,0.00,6,,353
2011-11-20,26,17,8,18,11,3,85,75,59,30.36,30.28,30.23,10,10,10,14,7,,0.00,0,,295
2011-11-21,41,29,17,28,22,14,93,75,57,30.24,30.16,30.07,10,9,3,14,8,,0.00,1,,127
2011-11-22,48,39,30,34,29,21,93,75,46,30.10,30.04,29.98,10,7,2,12,5,,0.00,3,,133
2011-11-23,57,39,21,30,26,19,93,68,36,30.10,30.06,30.00,10,8,3,9,3,,0.00,0,,112
2011-11-24,64,50,35,36,30,25,65,48,32,29.94,29.82,29.71,10,10,10,20,10,25,0.00,0,,184
2011-11-25,60,46,32,41,31,25,80,57,34,29.69,29.63,29.56,10,10,10,14,5,,0.00,1,,181
2011-11-26,37,34,30,30,20,9,75,56,40,30.31,30.09,29.76,10,10,5,39,24,48,0.00,7,,310
2011-11-27,39,29,19,18,10,7,63,49,33,30.34,30.27,30.17,10,10,10,16,11,18,0.00,0,,298
2011-11-28,51,34,17,28,16,9,73,49,28,30.24,30.08,30.01,10,10,10,18,6,23,0.00,0,,56
2011-11-29,42,30,19,27,16,5,93,61,23,30.41,30.31,30.17,10,10,10,13,8,,0.00,0,,282
2011-11-30,48,37,26,25,20,9,64,51,40,30.08,29.89,29.78,10,10,10,13,8,,0.00,0,,141